createdAt,value
2023-11-11T00:00:27.330Z,0.00
2023-11-11T00:05:33.691Z,0.00
2023-11-11T00:10:23.014Z,0.00
2023-11-11T00:15:28.660Z,0.00
2023-11-11T00:20:34.460Z,0.00
2023-11-11T00:25:23.567Z,0.00
2023-11-11T00:30:29.092Z,0.00
2023-11-11T00:35:35.055Z,0.00
2023-11-11T00:40:24.040Z,0.00
2023-11-11T00:45:30.377Z,0.00
2023-11-11T00:50:19.177Z,0.00
2023-11-11T00:55:25.261Z,0.00
2023-11-11T01:00:31.344Z,0.00
2023-11-11T01:05:19.727Z,0.00
2023-11-11T01:10:25.863Z,0.00
2023-11-11T01:15:31.874Z,0.00
2023-11-11T01:20:20.854Z,0.00
2023-11-11T01:25:26.921Z,0.00
2023-11-11T01:30:33.352Z,0.00
2023-11-11T01:35:22.436Z,0.00
2023-11-11T01:40:28.497Z,0.00
2023-11-11T01:45:34.645Z,0.00
2023-11-11T01:50:23.636Z,0.00
2023-11-11T01:55:29.810Z,0.00
2023-11-11T02:00:35.671Z,0.00
2023-11-11T02:05:24.062Z,0.00
2023-11-11T02:10:30.307Z,0.00
2023-11-11T02:15:19.323Z,0.00
2023-11-11T02:20:25.381Z,0.00
2023-11-11T02:25:31.492Z,0.00
2023-11-11T02:30:20.291Z,0.00
2023-11-11T02:35:25.767Z,0.00
2023-11-11T02:40:32.010Z,0.00
2023-11-11T02:45:21.176Z,0.00
2023-11-11T02:50:27.196Z,0.00
2023-11-11T02:55:33.187Z,0.00
2023-11-11T03:00:22.373Z,0.00
2023-11-11T03:05:28.628Z,0.00
2023-11-11T03:10:34.889Z,0.00
2023-11-11T03:15:23.822Z,0.00
2023-11-11T03:20:29.739Z,0.00
2023-11-11T03:25:36.247Z,0.00
2023-11-11T03:30:24.310Z,0.00
2023-11-11T03:35:30.383Z,0.00
2023-11-11T03:40:19.413Z,0.00
2023-11-11T03:45:25.928Z,0.00
2023-11-11T03:50:31.487Z,0.00
2023-11-11T03:55:20.607Z,0.00
2023-11-11T04:00:26.681Z,0.00
2023-11-11T04:05:33.030Z,0.00
2023-11-11T04:10:21.114Z,0.00
2023-11-11T04:15:27.316Z,0.00
2023-11-11T04:20:33.167Z,0.00
2023-11-11T04:25:22.222Z,0.00
2023-11-11T04:30:28.663Z,0.00
2023-11-11T04:35:35.122Z,0.00
2023-11-11T04:40:24.892Z,0.00
2023-11-11T04:45:30.851Z,0.00
2023-11-11T04:50:35.890Z,0.00
2023-11-11T04:55:24.884Z,0.00
2023-11-11T05:00:31.076Z,0.00
2023-11-11T05:05:19.091Z,0.00
2023-11-11T05:10:25.358Z,0.00
2023-11-11T05:15:31.731Z,0.00
2023-11-11T05:20:20.485Z,0.00
2023-11-11T05:25:26.526Z,0.00
2023-11-11T05:30:32.046Z,0.00
2023-11-11T05:35:20.787Z,0.00
2023-11-11T05:40:27.330Z,0.00
2023-11-11T05:45:33.166Z,0.00
2023-11-11T05:50:22.134Z,0.00
2023-11-11T05:55:28.281Z,0.00
2023-11-11T06:00:34.303Z,0.00
2023-11-11T06:05:23.593Z,0.00
2023-11-11T06:10:29.738Z,0.00
2023-11-11T06:15:35.786Z,0.00
2023-11-11T06:20:24.725Z,0.00
2023-11-11T06:25:30.889Z,0.19
2023-11-11T06:30:20.155Z,0.55
2023-11-11T06:35:25.391Z,1.17
2023-11-11T06:40:31.607Z,2.73
2023-11-11T06:45:20.589Z,4.00
2023-11-11T06:50:26.481Z,6.33
2023-11-11T06:55:32.691Z,8.94
2023-11-11T07:00:21.624Z,11.73
2023-11-11T07:05:26.947Z,17.69
2023-11-11T07:10:33.030Z,23.59
2023-11-11T07:15:22.301Z,20.30
2023-11-11T07:20:28.189Z,15.75
2023-11-11T07:25:34.372Z,17.44
2023-11-11T07:30:23.623Z,22.88
2023-11-11T07:35:30.226Z,24.93
2023-11-11T07:40:36.205Z,34.84
2023-11-11T07:45:25.171Z,36.23
2023-11-11T07:50:30.958Z,28.39
2023-11-11T07:55:19.747Z,24.21
2023-11-11T08:00:26.222Z,20.26
2023-11-11T08:05:31.373Z,23.26
2023-11-11T08:10:20.785Z,33.20
2023-11-11T08:15:26.527Z,26.85
2023-11-11T08:20:32.566Z,18.87
2023-11-11T08:25:21.963Z,16.10
2023-11-11T08:30:27.061Z,13.35
2023-11-11T08:35:33.442Z,18.67
2023-11-11T08:40:22.100Z,28.22
2023-11-11T08:45:28.600Z,30.17
2023-11-11T08:50:34.184Z,34.04
2023-11-11T08:55:23.429Z,38.45
2023-11-11T09:00:29.460Z,44.72
2023-11-11T09:05:19.655Z,44.18
2023-11-11T09:10:24.809Z,43.76
2023-11-11T09:15:31.194Z,52.84
2023-11-11T09:20:20.608Z,76.66
2023-11-11T09:25:26.042Z,69.36
2023-11-11T09:30:31.353Z,49.24
2023-11-11T09:35:20.424Z,39.89
2023-11-11T09:40:27.420Z,37.98
2023-11-11T09:45:33.504Z,36.32
2023-11-11T09:50:21.498Z,56.58
2023-11-11T09:55:27.784Z,58.99
2023-11-11T10:00:34.404Z,36.11
2023-11-11T10:05:22.791Z,35.28
2023-11-11T10:10:28.152Z,41.34
2023-11-11T10:15:34.100Z,42.12
2023-11-11T10:20:23.737Z,62.01
2023-11-11T10:25:29.347Z,64.69
2023-11-11T10:30:35.546Z,63.40
2023-11-11T10:35:24.627Z,84.29
2023-11-11T10:40:30.728Z,75.85
2023-11-11T10:45:19.711Z,91.00
2023-11-11T10:50:25.756Z,80.44
2023-11-11T10:55:31.864Z,65.12
2023-11-11T11:00:22.090Z,80.25
2023-11-11T11:05:26.628Z,86.49
2023-11-11T11:10:32.417Z,103.06
2023-11-11T11:15:21.180Z,153.13
2023-11-11T11:20:27.397Z,158.00
2023-11-11T11:25:33.540Z,98.34
2023-11-11T11:30:21.635Z,103.39
2023-11-11T11:35:27.739Z,101.01
2023-11-11T11:40:34.027Z,65.69
2023-11-11T11:45:22.833Z,72.13
2023-11-11T11:50:29.470Z,113.17
2023-11-11T11:55:35.701Z,98.81
2023-11-11T12:00:24.385Z,133.04
2023-11-11T12:05:30.294Z,88.26
2023-11-11T12:10:19.178Z,75.76
2023-11-11T12:15:25.221Z,70.51
2023-11-11T12:20:31.281Z,85.65
2023-11-11T12:25:20.785Z,138.22
2023-11-11T12:30:26.057Z,118.40
2023-11-11T12:35:32.143Z,133.94
2023-11-11T12:40:21.318Z,129.44
2023-11-11T12:45:27.279Z,117.72
2023-11-11T12:50:34.449Z,98.51
2023-11-11T12:55:22.479Z,109.43
2023-11-11T13:00:28.365Z,78.85
2023-11-11T13:05:33.739Z,46.63
2023-11-11T13:10:22.779Z,81.37
2023-11-11T13:15:28.860Z,168.58
2023-11-11T13:20:35.437Z,222.45
2023-11-11T13:25:23.860Z,163.72
2023-11-11T13:30:30.623Z,148.91
2023-11-11T13:35:19.658Z,129.57
2023-11-11T13:40:25.633Z,95.44
2023-11-11T13:45:31.770Z,97.15
2023-11-11T13:50:20.812Z,107.83
2023-11-11T13:55:26.994Z,100.60
2023-11-11T14:00:32.914Z,74.61
2023-11-11T14:05:21.446Z,74.76
2023-11-11T14:10:27.347Z,63.71
2023-11-11T14:15:33.390Z,59.81
2023-11-11T14:20:22.483Z,69.15
2023-11-11T14:25:28.976Z,58.11
2023-11-11T14:30:33.886Z,57.03
2023-11-11T14:35:23.695Z,52.81
2023-11-11T14:40:28.991Z,46.27
2023-11-11T14:45:38.938Z,34.24
2023-11-11T14:50:23.773Z,28.45
2023-11-11T15:00:18.303Z,26.94
2023-11-11T15:05:25.340Z,20.23
2023-11-11T15:10:30.803Z,17.29
2023-11-11T15:15:20.043Z,12.58
2023-11-11T15:20:25.994Z,8.33
2023-11-11T15:25:32.128Z,4.36
2023-11-11T15:30:20.482Z,3.06
2023-11-11T15:35:26.296Z,1.28
2023-11-11T15:40:23.433Z,0.00
2023-11-11T15:45:21.640Z,0.00
2023-11-11T15:50:29.554Z,0.00
2023-11-11T15:55:33.480Z,0.00
2023-11-11T16:00:22.646Z,0.00
2023-11-11T16:05:28.421Z,0.00
2023-11-11T16:10:34.512Z,0.00
2023-11-11T16:15:23.613Z,0.00
2023-11-11T16:20:29.627Z,0.00
2023-11-11T16:25:18.710Z,0.00
2023-11-11T16:30:24.291Z,0.00
2023-11-11T16:35:30.293Z,0.00
2023-11-11T16:40:19.525Z,0.00
2023-11-11T16:45:25.575Z,0.00
2023-11-11T16:50:31.591Z,0.00
2023-11-11T16:55:20.601Z,0.00
2023-11-11T17:00:26.716Z,0.00
2023-11-11T17:05:31.917Z,0.00
2023-11-11T17:10:21.081Z,0.00
2023-11-11T17:15:27.138Z,0.00
2023-11-11T17:20:33.254Z,0.00
2023-11-11T17:25:22.301Z,0.00
2023-11-11T17:30:28.915Z,0.00
2023-11-11T17:35:35.086Z,0.00
2023-11-11T17:40:23.707Z,0.00
2023-11-11T17:45:30.008Z,0.00
2023-11-11T17:50:18.892Z,0.00
2023-11-11T17:55:24.791Z,0.00
2023-11-11T18:00:30.854Z,0.00
2023-11-11T18:05:19.229Z,0.00
2023-11-11T18:10:25.426Z,0.00
2023-11-11T18:15:31.480Z,0.00
2023-11-11T18:20:20.549Z,0.00
2023-11-11T18:25:26.873Z,0.00
2023-11-11T18:30:31.961Z,0.00
2023-11-11T18:35:20.895Z,0.00
2023-11-11T18:40:26.859Z,0.00
2023-11-11T18:45:33.083Z,0.00
2023-11-11T18:50:26.114Z,0.00
2023-11-11T18:55:28.129Z,0.00
2023-11-11T19:00:34.337Z,0.00
2023-11-11T19:05:23.054Z,0.00
2023-11-11T19:10:29.031Z,0.00
2023-11-11T19:15:18.254Z,0.00
2023-11-11T19:20:24.234Z,0.00
2023-11-11T19:25:30.334Z,0.00
2023-11-11T19:30:19.720Z,0.00
2023-11-11T19:35:25.540Z,0.00
2023-11-11T19:40:31.477Z,0.00
2023-11-11T19:45:21.376Z,0.00
2023-11-11T19:50:26.547Z,0.00
2023-11-11T19:55:32.712Z,0.00
2023-11-11T20:00:21.683Z,0.00
2023-11-11T20:05:27.605Z,0.00
2023-11-11T20:10:33.672Z,0.00
2023-11-11T20:15:22.724Z,0.00
2023-11-11T20:20:28.881Z,0.00
2023-11-11T20:25:34.718Z,0.00
2023-11-11T20:30:23.424Z,0.00
2023-11-11T20:35:29.575Z,0.00
2023-11-11T20:40:18.669Z,0.00
2023-11-11T20:45:24.630Z,0.00
2023-11-11T20:50:30.650Z,0.00
2023-11-11T20:55:19.822Z,0.00
2023-11-11T21:00:25.972Z,0.00
2023-11-11T21:05:31.891Z,0.00
2023-11-11T21:10:20.918Z,0.00
2023-11-11T21:15:26.959Z,0.00
2023-11-11T21:20:33.193Z,0.00
2023-11-11T21:25:22.046Z,0.00
2023-11-11T21:30:27.820Z,0.00
2023-11-11T21:35:33.893Z,0.00
2023-11-11T21:40:23.010Z,0.00
2023-11-11T21:45:28.937Z,0.00
2023-11-11T21:50:18.112Z,0.00
2023-11-11T21:55:24.106Z,0.00
2023-11-11T22:00:30.191Z,0.00
2023-11-11T22:05:19.041Z,0.00
2023-11-11T22:10:25.097Z,0.00
2023-11-11T22:15:31.232Z,0.00
2023-11-11T22:20:20.278Z,0.00
2023-11-11T22:25:26.248Z,0.00
2023-11-11T22:30:32.286Z,0.00
2023-11-11T22:35:21.339Z,0.00
2023-11-11T22:40:27.446Z,0.00
2023-11-11T22:45:33.418Z,0.00
2023-11-11T22:50:22.440Z,0.00
2023-11-11T22:55:29.413Z,0.00
2023-11-11T23:00:34.676Z,0.00
2023-11-11T23:05:23.523Z,0.00
2023-11-11T23:10:29.684Z,0.00
2023-11-11T23:15:18.700Z,0.00
2023-11-11T23:20:24.695Z,0.00
2023-11-11T23:25:30.660Z,0.00
2023-11-11T23:30:19.715Z,0.00
2023-11-11T23:35:25.708Z,0.00
2023-11-11T23:40:32.066Z,0.00
2023-11-11T23:45:20.963Z,0.00
2023-11-11T23:50:26.932Z,0.00
2023-11-11T23:55:34.030Z,0.00
